sensor_id;sensor_type;location;lat;lon;timestamp;P1;durP1;ratioP1;P2;durP2;ratioP2
70342;SDS011;57767;42.068;24.752;2022-09-27T00:00:16;23.20;;;10.15;;
70342;SDS011;57767;42.068;24.752;2022-09-27T00:01:18;14.43;;;9.77;;
70342;SDS011;57767;42.068;24.752;2022-09-27T00:02:20;14.65;;;9.60;;
70342;SDS011;57767;42.068;24.752;2022-09-27T00:03:21;14.73;;;9.07;;
70342;SDS011;57767;42.068;24.752;2022-09-27T00:04:23;12.38;;;7.80;;
70342;SDS011;57767;42.068;24.752;2022-09-27T00:05:26;16.60;;;8.38;;
70342;SDS011;57767;42.068;24.752;2022-09-27T00:06:28;11.88;;;7.90;;
70342;SDS011;57767;42.068;24.752;2022-09-27T00:07:31;10.63;;;7.93;;
70342;SDS011;57767;42.068;24.752;2022-09-27T00:08:33;12.27;;;9.10;;
70342;SDS011;57767;42.068;24.752;2022-09-27T00:09:36;12.18;;;10.02;;
70342;SDS011;57767;42.068;24.752;2022-09-27T00:10:38;15.65;;;9.55;;
70342;SDS011;57767;42.068;24.752;2022-09-27T00:11:40;13.25;;;9.88;;
70342;SDS011;57767;42.068;24.752;2022-09-27T00:12:43;14.60;;;10.02;;
70342;SDS011;57767;42.068;24.752;2022-09-27T00:13:44;12.63;;;9.07;;
70342;SDS011;57767;42.068;24.752;2022-09-27T00:14:46;11.73;;;8.85;;
70342;SDS011;57767;42.068;24.752;2022-09-27T00:15:54;12.70;;;9.13;;
70342;SDS011;57767;42.068;24.752;2022-09-27T00:16:56;11.35;;;8.45;;
70342;SDS011;57767;42.068;24.752;2022-09-27T00:17:58;16.75;;;8.82;;
70342;SDS011;57767;42.068;24.752;2022-09-27T00:19:01;12.25;;;8.27;;
70342;SDS011;57767;42.068;24.752;2022-09-27T00:20:05;11.88;;;8.80;;
70342;SDS011;57767;42.068;24.752;2022-09-27T00:21:09;14.32;;;8.88;;
70342;SDS011;57767;42.068;24.752;2022-09-27T00:22:12;15.35;;;9.38;;
70342;SDS011;57767;42.068;24.752;2022-09-27T00:23:14;16.20;;;9.98;;
70342;SDS011;57767;42.068;24.752;2022-09-27T00:24:17;14.05;;;10.90;;
70342;SDS011;57767;42.068;24.752;2022-09-27T00:25:20;14.07;;;10.65;;
70342;SDS011;57767;42.068;24.752;2022-09-27T00:26:22;13.82;;;10.70;;
70342;SDS011;57767;42.068;24.752;2022-09-27T00:27:24;14.80;;;10.15;;
70342;SDS011;57767;42.068;24.752;2022-09-27T00:28:27;13.77;;;10.70;;
70342;SDS011;57767;42.068;24.752;2022-09-27T00:29:29;18.33;;;10.70;;
70342;SDS011;57767;42.068;24.752;2022-09-27T00:30:30;13.25;;;10.20;;
70342;SDS011;57767;42.068;24.752;2022-09-27T00:31:32;12.73;;;9.57;;
70342;SDS011;57767;42.068;24.752;2022-09-27T00:32:34;15.40;;;10.35;;
70342;SDS011;57767;42.068;24.752;2022-09-27T00:33:36;13.73;;;10.30;;
70342;SDS011;57767;42.068;24.752;2022-09-27T00:34:37;14.40;;;10.68;;
70342;SDS011;57767;42.068;24.752;2022-09-27T00:35:39;13.98;;;10.00;;
70342;SDS011;57767;42.068;24.752;2022-09-27T00:36:41;15.52;;;11.50;;
70342;SDS011;57767;42.068;24.752;2022-09-27T00:37:43;18.95;;;11.25;;
70342;SDS011;57767;42.068;24.752;2022-09-27T00:38:48;17.77;;;10.95;;
70342;SDS011;57767;42.068;24.752;2022-09-27T00:39:50;17.13;;;11.23;;
70342;SDS011;57767;42.068;24.752;2022-09-27T00:40:52;13.88;;;10.98;;
70342;SDS011;57767;42.068;24.752;2022-09-27T00:41:54;15.40;;;10.90;;
70342;SDS011;57767;42.068;24.752;2022-09-27T00:42:56;16.83;;;10.88;;
70342;SDS011;57767;42.068;24.752;2022-09-27T00:44:02;13.23;;;10.93;;
70342;SDS011;57767;42.068;24.752;2022-09-27T00:45:24;18.10;;;10.55;;
70342;SDS011;57767;42.068;24.752;2022-09-27T00:46:27;13.25;;;10.38;;
70342;SDS011;57767;42.068;24.752;2022-09-27T00:47:38;15.35;;;10.40;;
70342;SDS011;57767;42.068;24.752;2022-09-27T00:48:46;16.23;;;10.48;;
70342;SDS011;57767;42.068;24.752;2022-09-27T00:51:09;14.50;;;10.50;;
70342;SDS011;57767;42.068;24.752;2022-09-27T00:52:21;12.88;;;9.95;;
70342;SDS011;57767;42.068;24.752;2022-09-27T00:53:33;16.40;;;11.15;;
70342;SDS011;57767;42.068;24.752;2022-09-27T00:54:39;15.35;;;10.75;;
70342;SDS011;57767;42.068;24.752;2022-09-27T00:56:02;14.35;;;10.25;;
70342;SDS011;57767;42.068;24.752;2022-09-27T00:57:10;14.77;;;10.18;;
70342;SDS011;57767;42.068;24.752;2022-09-27T00:58:12;15.43;;;10.38;;
70342;SDS011;57767;42.068;24.752;2022-09-27T00:59:37;11.55;;;8.90;;
70342;SDS011;57767;42.068;24.752;2022-09-27T01:00:43;13.27;;;9.85;;
70342;SDS011;57767;42.068;24.752;2022-09-27T01:01:48;16.90;;;9.88;;
70342;SDS011;57767;42.068;24.752;2022-09-27T01:02:52;14.60;;;9.82;;
70342;SDS011;57767;42.068;24.752;2022-09-27T01:05:11;15.35;;;9.82;;
70342;SDS011;57767;42.068;24.752;2022-09-27T01:06:15;14.27;;;9.57;;
70342;SDS011;57767;42.068;24.752;2022-09-27T01:07:18;13.27;;;9.52;;
70342;SDS011;57767;42.068;24.752;2022-09-27T01:08:20;12.25;;;9.40;;
70342;SDS011;57767;42.068;24.752;2022-09-27T01:09:22;16.30;;;9.88;;
70342;SDS011;57767;42.068;24.752;2022-09-27T01:10:25;15.82;;;9.27;;
70342;SDS011;57767;42.068;24.752;2022-09-27T01:15:44;14.18;;;8.05;;
70342;SDS011;57767;42.068;24.752;2022-09-27T01:22:10;16.75;;;10.70;;
70342;SDS011;57767;42.068;24.752;2022-09-27T01:30:22;17.08;;;11.45;;
70342;SDS011;57767;42.068;24.752;2022-09-27T01:35:28;19.27;;;11.32;;
70342;SDS011;57767;42.068;24.752;2022-09-27T01:40:29;16.80;;;10.88;;
70342;SDS011;57767;42.068;24.752;2022-09-27T01:42:03;15.13;;;11.52;;
70342;SDS011;57767;42.068;24.752;2022-09-27T01:43:17;14.60;;;11.52;;
70342;SDS011;57767;42.068;24.752;2022-09-27T01:45:39;15.75;;;11.38;;
70342;SDS011;57767;42.068;24.752;2022-09-27T01:46:45;17.58;;;11.10;;
70342;SDS011;57767;42.068;24.752;2022-09-27T01:47:54;13.38;;;10.75;;
70342;SDS011;57767;42.068;24.752;2022-09-27T01:48:58;16.25;;;11.50;;
70342;SDS011;57767;42.068;24.752;2022-09-27T01:50:10;16.00;;;10.50;;
70342;SDS011;57767;42.068;24.752;2022-09-27T01:51:17;15.98;;;11.15;;
70342;SDS011;57767;42.068;24.752;2022-09-27T01:52:33;13.93;;;10.70;;
70342;SDS011;57767;42.068;24.752;2022-09-27T01:53:40;17.33;;;10.82;;
70342;SDS011;57767;42.068;24.752;2022-09-27T01:54:47;15.15;;;10.57;;
70342;SDS011;57767;42.068;24.752;2022-09-27T01:56:58;15.18;;;10.15;;
70342;SDS011;57767;42.068;24.752;2022-09-27T01:58:09;16.08;;;10.80;;
70342;SDS011;57767;42.068;24.752;2022-09-27T01:59:21;18.50;;;11.55;;
70342;SDS011;57767;42.068;24.752;2022-09-27T02:00:29;16.23;;;11.27;;
70342;SDS011;57767;42.068;24.752;2022-09-27T02:01:32;18.95;;;10.45;;
70342;SDS011;57767;42.068;24.752;2022-09-27T02:02:45;13.93;;;11.13;;
70342;SDS011;57767;42.068;24.752;2022-09-27T02:03:51;15.35;;;10.93;;
70342;SDS011;57767;42.068;24.752;2022-09-27T02:04:55;17.17;;;11.25;;
70342;SDS011;57767;42.068;24.752;2022-09-27T02:06:06;13.73;;;10.68;;
70342;SDS011;57767;42.068;24.752;2022-09-27T02:07:15;15.50;;;11.10;;
70342;SDS011;57767;42.068;24.752;2022-09-27T02:08:42;17.45;;;11.27;;
70342;SDS011;57767;42.068;24.752;2022-09-27T02:10:13;17.85;;;11.10;;
70342;SDS011;57767;42.068;24.752;2022-09-27T02:11:20;14.07;;;11.20;;
70342;SDS011;57767;42.068;24.752;2022-09-27T02:12:24;14.73;;;10.75;;
70342;SDS011;57767;42.068;24.752;2022-09-27T02:13:45;13.95;;;11.13;;
70342;SDS011;57767;42.068;24.752;2022-09-27T02:14:55;12.43;;;10.98;;
70342;SDS011;57767;42.068;24.752;2022-09-27T02:18:31;13.60;;;11.45;;
70342;SDS011;57767;42.068;24.752;2022-09-27T02:20:02;14.15;;;10.40;;
70342;SDS011;57767;42.068;24.752;2022-09-27T02:21:06;17.63;;;11.35;;
70342;SDS011;57767;42.068;24.752;2022-09-27T02:22:14;15.93;;;10.55;;
70342;SDS011;57767;42.068;24.752;2022-09-27T02:23:21;12.95;;;10.98;;
70342;SDS011;57767;42.068;24.752;2022-09-27T02:24:24;15.18;;;11.02;;
70342;SDS011;57767;42.068;24.752;2022-09-27T02:26:45;13.30;;;9.75;;
70342;SDS011;57767;42.068;24.752;2022-09-27T02:28:06;18.13;;;10.50;;
70342;SDS011;57767;42.068;24.752;2022-09-27T02:29:15;13.77;;;10.63;;
70342;SDS011;57767;42.068;24.752;2022-09-27T02:30:22;18.00;;;9.93;;
70342;SDS011;57767;42.068;24.752;2022-09-27T02:31:24;21.02;;;10.70;;
70342;SDS011;57767;42.068;24.752;2022-09-27T02:32:26;12.88;;;10.65;;
70342;SDS011;57767;42.068;24.752;2022-09-27T02:33:29;14.32;;;10.77;;
70342;SDS011;57767;42.068;24.752;2022-09-27T02:34:36;13.55;;;10.13;;
70342;SDS011;57767;42.068;24.752;2022-09-27T02:35:41;15.27;;;10.18;;
70342;SDS011;57767;42.068;24.752;2022-09-27T02:36:43;13.40;;;9.98;;
70342;SDS011;57767;42.068;24.752;2022-09-27T02:37:45;14.60;;;10.18;;
70342;SDS011;57767;42.068;24.752;2022-09-27T02:38:47;15.05;;;10.25;;
70342;SDS011;57767;42.068;24.752;2022-09-27T02:39:49;13.68;;;10.55;;
70342;SDS011;57767;42.068;24.752;2022-09-27T02:40:51;17.80;;;11.05;;
70342;SDS011;57767;42.068;24.752;2022-09-27T02:41:54;13.02;;;9.82;;
70342;SDS011;57767;42.068;24.752;2022-09-27T02:42:58;12.40;;;10.10;;
70342;SDS011;57767;42.068;24.752;2022-09-27T02:44:02;11.82;;;9.52;;
70342;SDS011;57767;42.068;24.752;2022-09-27T02:45:08;12.43;;;9.90;;
70342;SDS011;57767;42.068;24.752;2022-09-27T02:46:35;14.25;;;9.50;;
70342;SDS011;57767;42.068;24.752;2022-09-27T02:47:53;13.07;;;9.70;;
70342;SDS011;57767;42.068;24.752;2022-09-27T02:53:21;18.00;;;10.10;;
70342;SDS011;57767;42.068;24.752;2022-09-27T02:56:00;12.23;;;9.40;;
70342;SDS011;57767;42.068;24.752;2022-09-27T03:00:05;13.18;;;9.05;;
70342;SDS011;57767;42.068;24.752;2022-09-27T03:01:28;14.07;;;9.82;;
70342;SDS011;57767;42.068;24.752;2022-09-27T03:02:42;18.75;;;9.23;;
70342;SDS011;57767;42.068;24.752;2022-09-27T03:04:03;13.93;;;9.38;;
70342;SDS011;57767;42.068;24.752;2022-09-27T03:05:21;15.38;;;9.45;;
70342;SDS011;57767;42.068;24.752;2022-09-27T03:06:26;10.88;;;9.25;;
70342;SDS011;57767;42.068;24.752;2022-09-27T03:07:30;13.05;;;9.05;;
70342;SDS011;57767;42.068;24.752;2022-09-27T03:08:32;14.02;;;8.98;;
70342;SDS011;57767;42.068;24.752;2022-09-27T03:09:41;12.30;;;8.70;;
70342;SDS011;57767;42.068;24.752;2022-09-27T03:10:48;13.25;;;9.05;;
70342;SDS011;57767;42.068;24.752;2022-09-27T03:11:50;16.90;;;8.43;;
70342;SDS011;57767;42.068;24.752;2022-09-27T03:12:52;16.13;;;8.88;;
70342;SDS011;57767;42.068;24.752;2022-09-27T03:13:54;15.27;;;8.68;;
70342;SDS011;57767;42.068;24.752;2022-09-27T03:15:09;16.45;;;9.55;;
70342;SDS011;57767;42.068;24.752;2022-09-27T03:16:11;19.55;;;9.63;;
70342;SDS011;57767;42.068;24.752;2022-09-27T03:17:13;17.17;;;9.40;;
70342;SDS011;57767;42.068;24.752;2022-09-27T03:18:15;15.25;;;10.15;;
70342;SDS011;57767;42.068;24.752;2022-09-27T03:19:17;15.60;;;9.95;;
70342;SDS011;57767;42.068;24.752;2022-09-27T03:20:19;13.30;;;9.55;;
70342;SDS011;57767;42.068;24.752;2022-09-27T03:21:20;14.73;;;9.13;;
70342;SDS011;57767;42.068;24.752;2022-09-27T03:22:22;14.60;;;9.65;;
70342;SDS011;57767;42.068;24.752;2022-09-27T03:23:24;15.18;;;8.57;;
70342;SDS011;57767;42.068;24.752;2022-09-27T03:24:26;13.00;;;9.57;;
70342;SDS011;57767;42.068;24.752;2022-09-27T03:25:28;12.75;;;9.82;;
70342;SDS011;57767;42.068;24.752;2022-09-27T03:26:29;14.65;;;9.38;;
70342;SDS011;57767;42.068;24.752;2022-09-27T03:27:31;14.85;;;9.40;;
70342;SDS011;57767;42.068;24.752;2022-09-27T03:28:33;14.07;;;9.50;;
70342;SDS011;57767;42.068;24.752;2022-09-27T03:29:36;14.57;;;8.98;;
70342;SDS011;57767;42.068;24.752;2022-09-27T03:30:37;12.73;;;9.77;;
70342;SDS011;57767;42.068;24.752;2022-09-27T03:31:39;14.23;;;10.15;;
70342;SDS011;57767;42.068;24.752;2022-09-27T03:32:42;20.58;;;10.65;;
70342;SDS011;57767;42.068;24.752;2022-09-27T03:33:45;12.60;;;9.75;;
70342;SDS011;57767;42.068;24.752;2022-09-27T03:34:46;13.45;;;9.75;;
70342;SDS011;57767;42.068;24.752;2022-09-27T03:35:48;15.68;;;10.98;;
70342;SDS011;57767;42.068;24.752;2022-09-27T03:36:50;15.52;;;10.07;;
70342;SDS011;57767;42.068;24.752;2022-09-27T03:37:52;13.40;;;10.13;;
70342;SDS011;57767;42.068;24.752;2022-09-27T03:38:53;14.05;;;9.90;;
70342;SDS011;57767;42.068;24.752;2022-09-27T03:39:55;17.17;;;9.40;;
70342;SDS011;57767;42.068;24.752;2022-09-27T03:40:57;15.15;;;9.63;;
70342;SDS011;57767;42.068;24.752;2022-09-27T03:41:59;12.00;;;10.10;;
70342;SDS011;57767;42.068;24.752;2022-09-27T03:43:01;15.80;;;10.30;;
70342;SDS011;57767;42.068;24.752;2022-09-27T03:44:03;18.48;;;9.93;;
70342;SDS011;57767;42.068;24.752;2022-09-27T03:45:05;13.68;;;9.95;;
70342;SDS011;57767;42.068;24.752;2022-09-27T03:46:07;16.48;;;9.65;;
70342;SDS011;57767;42.068;24.752;2022-09-27T03:47:09;12.52;;;9.85;;
70342;SDS011;57767;42.068;24.752;2022-09-27T03:48:11;13.82;;;10.00;;
70342;SDS011;57767;42.068;24.752;2022-09-27T03:49:13;12.38;;;9.52;;
70342;SDS011;57767;42.068;24.752;2022-09-27T03:50:14;14.68;;;9.57;;
70342;SDS011;57767;42.068;24.752;2022-09-27T03:51:16;20.30;;;10.35;;
70342;SDS011;57767;42.068;24.752;2022-09-27T03:52:18;14.75;;;9.82;;
70342;SDS011;57767;42.068;24.752;2022-09-27T03:53:20;15.65;;;9.85;;
70342;SDS011;57767;42.068;24.752;2022-09-27T03:54:22;12.43;;;10.05;;
70342;SDS011;57767;42.068;24.752;2022-09-27T03:55:24;14.40;;;10.55;;
70342;SDS011;57767;42.068;24.752;2022-09-27T03:56:26;14.32;;;9.85;;
70342;SDS011;57767;42.068;24.752;2022-09-27T03:57:28;12.13;;;9.80;;
70342;SDS011;57767;42.068;24.752;2022-09-27T03:58:31;16.65;;;9.77;;
70342;SDS011;57767;42.068;24.752;2022-09-27T03:59:32;12.77;;;9.70;;
70342;SDS011;57767;42.068;24.752;2022-09-27T04:00:34;13.40;;;10.15;;
70342;SDS011;57767;42.068;24.752;2022-09-27T04:01:36;16.08;;;10.55;;
70342;SDS011;57767;42.068;24.752;2022-09-27T04:02:39;13.23;;;10.38;;
70342;SDS011;57767;42.068;24.752;2022-09-27T04:03:42;12.88;;;10.02;;
70342;SDS011;57767;42.068;24.752;2022-09-27T04:04:44;12.43;;;10.02;;
70342;SDS011;57767;42.068;24.752;2022-09-27T04:05:45;14.73;;;9.88;;
70342;SDS011;57767;42.068;24.752;2022-09-27T04:06:47;15.32;;;10.50;;
70342;SDS011;57767;42.068;24.752;2022-09-27T04:07:49;12.80;;;10.32;;
70342;SDS011;57767;42.068;24.752;2022-09-27T04:08:51;12.98;;;9.50;;
70342;SDS011;57767;42.068;24.752;2022-09-27T04:09:54;15.57;;;9.80;;
70342;SDS011;57767;42.068;24.752;2022-09-27T04:10:55;14.50;;;10.60;;
70342;SDS011;57767;42.068;24.752;2022-09-27T04:11:57;15.10;;;10.13;;
70342;SDS011;57767;42.068;24.752;2022-09-27T04:12:59;13.82;;;9.30;;
70342;SDS011;57767;42.068;24.752;2022-09-27T04:14:00;14.65;;;9.45;;
70342;SDS011;57767;42.068;24.752;2022-09-27T04:15:05;14.38;;;9.80;;
70342;SDS011;57767;42.068;24.752;2022-09-27T04:16:08;15.90;;;10.10;;
70342;SDS011;57767;42.068;24.752;2022-09-27T04:17:10;13.32;;;9.48;;
70342;SDS011;57767;42.068;24.752;2022-09-27T04:18:12;14.25;;;9.98;;
70342;SDS011;57767;42.068;24.752;2022-09-27T04:19:13;13.73;;;9.68;;
70342;SDS011;57767;42.068;24.752;2022-09-27T04:20:15;11.63;;;9.57;;
70342;SDS011;57767;42.068;24.752;2022-09-27T04:21:19;12.55;;;9.35;;
70342;SDS011;57767;42.068;24.752;2022-09-27T04:22:20;11.25;;;10.05;;
70342;SDS011;57767;42.068;24.752;2022-09-27T04:23:23;12.77;;;9.75;;
70342;SDS011;57767;42.068;24.752;2022-09-27T04:24:30;14.32;;;10.45;;
70342;SDS011;57767;42.068;24.752;2022-09-27T04:25:33;15.52;;;9.75;;
70342;SDS011;57767;42.068;24.752;2022-09-27T04:26:34;11.85;;;9.35;;
70342;SDS011;57767;42.068;24.752;2022-09-27T04:27:38;15.52;;;9.50;;
70342;SDS011;57767;42.068;24.752;2022-09-27T04:28:45;13.85;;;9.52;;
70342;SDS011;57767;42.068;24.752;2022-09-27T04:29:53;16.80;;;10.07;;
70342;SDS011;57767;42.068;24.752;2022-09-27T04:30:55;15.25;;;10.60;;
70342;SDS011;57767;42.068;24.752;2022-09-27T04:31:57;13.88;;;9.98;;
70342;SDS011;57767;42.068;24.752;2022-09-27T04:32:59;15.95;;;10.23;;
70342;SDS011;57767;42.068;24.752;2022-09-27T04:34:01;17.25;;;10.02;;
70342;SDS011;57767;42.068;24.752;2022-09-27T04:35:03;13.38;;;9.82;;
70342;SDS011;57767;42.068;24.752;2022-09-27T04:36:23;17.48;;;10.02;;
70342;SDS011;57767;42.068;24.752;2022-09-27T04:37:26;18.40;;;10.95;;
70342;SDS011;57767;42.068;24.752;2022-09-27T04:38:28;18.85;;;11.45;;
70342;SDS011;57767;42.068;24.752;2022-09-27T04:39:30;15.73;;;10.63;;
70342;SDS011;57767;42.068;24.752;2022-09-27T04:40:34;15.65;;;10.50;;
70342;SDS011;57767;42.068;24.752;2022-09-27T04:41:37;12.55;;;10.60;;
70342;SDS011;57767;42.068;24.752;2022-09-27T04:42:38;15.38;;;10.52;;
70342;SDS011;57767;42.068;24.752;2022-09-27T04:43:40;15.98;;;10.18;;
70342;SDS011;57767;42.068;24.752;2022-09-27T04:44:42;12.52;;;10.75;;
70342;SDS011;57767;42.068;24.752;2022-09-27T04:45:44;15.38;;;9.57;;
70342;SDS011;57767;42.068;24.752;2022-09-27T04:46:46;17.38;;;10.18;;
70342;SDS011;57767;42.068;24.752;2022-09-27T04:47:48;20.15;;;10.02;;
70342;SDS011;57767;42.068;24.752;2022-09-27T04:48:50;17.70;;;9.55;;
70342;SDS011;57767;42.068;24.752;2022-09-27T04:49:52;18.10;;;10.77;;
70342;SDS011;57767;42.068;24.752;2022-09-27T04:50:54;13.63;;;9.32;;
70342;SDS011;57767;42.068;24.752;2022-09-27T04:52:00;16.27;;;9.55;;
70342;SDS011;57767;42.068;24.752;2022-09-27T04:53:02;14.10;;;9.30;;
70342;SDS011;57767;42.068;24.752;2022-09-27T04:54:04;17.75;;;9.73;;
70342;SDS011;57767;42.068;24.752;2022-09-27T04:55:06;14.48;;;9.80;;
70342;SDS011;57767;42.068;24.752;2022-09-27T04:56:09;15.63;;;9.20;;
70342;SDS011;57767;42.068;24.752;2022-09-27T04:57:13;13.00;;;8.98;;
70342;SDS011;57767;42.068;24.752;2022-09-27T04:58:14;11.80;;;8.80;;
70342;SDS011;57767;42.068;24.752;2022-09-27T04:59:16;15.77;;;9.85;;
70342;SDS011;57767;42.068;24.752;2022-09-27T05:00:18;15.85;;;8.90;;
70342;SDS011;57767;42.068;24.752;2022-09-27T05:01:20;11.27;;;9.38;;
70342;SDS011;57767;42.068;24.752;2022-09-27T05:02:23;13.30;;;9.13;;
70342;SDS011;57767;42.068;24.752;2022-09-27T05:03:24;14.27;;;9.35;;
70342;SDS011;57767;42.068;24.752;2022-09-27T05:04:27;17.30;;;9.63;;
70342;SDS011;57767;42.068;24.752;2022-09-27T05:05:28;14.48;;;9.48;;
70342;SDS011;57767;42.068;24.752;2022-09-27T05:06:30;12.38;;;9.52;;
70342;SDS011;57767;42.068;24.752;2022-09-27T05:07:36;12.55;;;10.38;;
70342;SDS011;57767;42.068;24.752;2022-09-27T05:08:39;13.77;;;9.60;;
70342;SDS011;57767;42.068;24.752;2022-09-27T05:09:41;15.63;;;9.63;;
70342;SDS011;57767;42.068;24.752;2022-09-27T05:10:42;10.88;;;9.23;;
70342;SDS011;57767;42.068;24.752;2022-09-27T05:11:44;13.02;;;9.55;;
70342;SDS011;57767;42.068;24.752;2022-09-27T05:12:46;10.80;;;9.40;;
70342;SDS011;57767;42.068;24.752;2022-09-27T05:13:47;11.88;;;8.90;;
70342;SDS011;57767;42.068;24.752;2022-09-27T05:14:50;12.23;;;9.18;;
70342;SDS011;57767;42.068;24.752;2022-09-27T05:15:52;14.02;;;9.18;;
70342;SDS011;57767;42.068;24.752;2022-09-27T05:16:53;10.63;;;9.48;;
70342;SDS011;57767;42.068;24.752;2022-09-27T05:17:55;14.27;;;9.40;;
70342;SDS011;57767;42.068;24.752;2022-09-27T05:18:58;17.65;;;9.82;;
70342;SDS011;57767;42.068;24.752;2022-09-27T05:20:00;12.25;;;8.82;;
70342;SDS011;57767;42.068;24.752;2022-09-27T05:21:03;11.40;;;8.98;;
70342;SDS011;57767;42.068;24.752;2022-09-27T05:22:05;12.45;;;8.65;;
70342;SDS011;57767;42.068;24.752;2022-09-27T05:23:07;17.63;;;9.00;;
70342;SDS011;57767;42.068;24.752;2022-09-27T05:24:09;11.27;;;8.48;;
70342;SDS011;57767;42.068;24.752;2022-09-27T05:25:10;12.30;;;9.18;;
70342;SDS011;57767;42.068;24.752;2022-09-27T05:26:12;12.30;;;8.55;;
70342;SDS011;57767;42.068;24.752;2022-09-27T05:27:15;11.30;;;8.45;;
70342;SDS011;57767;42.068;24.752;2022-09-27T05:28:20;11.48;;;8.32;;
70342;SDS011;57767;42.068;24.752;2022-09-27T05:29:23;13.52;;;8.77;;
70342;SDS011;57767;42.068;24.752;2022-09-27T05:30:25;11.50;;;8.43;;
70342;SDS011;57767;42.068;24.752;2022-09-27T05:31:28;16.42;;;8.77;;
70342;SDS011;57767;42.068;24.752;2022-09-27T05:32:29;11.93;;;8.43;;
70342;SDS011;57767;42.068;24.752;2022-09-27T05:33:31;10.40;;;7.90;;
70342;SDS011;57767;42.068;24.752;2022-09-27T05:34:34;10.77;;;8.43;;
70342;SDS011;57767;42.068;24.752;2022-09-27T05:35:36;16.13;;;7.82;;
70342;SDS011;57767;42.068;24.752;2022-09-27T05:36:42;13.57;;;7.63;;
70342;SDS011;57767;42.068;24.752;2022-09-27T05:37:51;15.00;;;7.88;;
70342;SDS011;57767;42.068;24.752;2022-09-27T05:38:57;12.30;;;7.85;;
70342;SDS011;57767;42.068;24.752;2022-09-27T05:39:59;26.48;;;8.75;;
70342;SDS011;57767;42.068;24.752;2022-09-27T05:41:17;14.80;;;8.07;;
70342;SDS011;57767;42.068;24.752;2022-09-27T05:42:19;11.95;;;8.18;;
70342;SDS011;57767;42.068;24.752;2022-09-27T05:43:21;10.52;;;8.20;;
70342;SDS011;57767;42.068;24.752;2022-09-27T05:44:24;11.43;;;8.30;;
70342;SDS011;57767;42.068;24.752;2022-09-27T05:45:26;11.48;;;8.13;;
70342;SDS011;57767;42.068;24.752;2022-09-27T05:46:28;12.77;;;7.47;;
70342;SDS011;57767;42.068;24.752;2022-09-27T05:47:29;13.20;;;8.02;;
70342;SDS011;57767;42.068;24.752;2022-09-27T05:48:31;11.73;;;8.32;;
70342;SDS011;57767;42.068;24.752;2022-09-27T05:49:33;12.25;;;8.02;;
70342;SDS011;57767;42.068;24.752;2022-09-27T05:50:35;11.70;;;8.68;;
70342;SDS011;57767;42.068;24.752;2022-09-27T05:51:36;15.20;;;8.48;;
70342;SDS011;57767;42.068;24.752;2022-09-27T05:52:38;11.75;;;7.90;;
70342;SDS011;57767;42.068;24.752;2022-09-27T05:53:40;10.10;;;8.48;;
70342;SDS011;57767;42.068;24.752;2022-09-27T05:54:41;12.30;;;8.00;;
70342;SDS011;57767;42.068;24.752;2022-09-27T05:55:43;13.07;;;8.13;;
70342;SDS011;57767;42.068;24.752;2022-09-27T05:56:45;14.13;;;8.00;;
70342;SDS011;57767;42.068;24.752;2022-09-27T05:58:20;11.63;;;7.85;;
70342;SDS011;57767;42.068;24.752;2022-09-27T05:59:16;13.25;;;8.52;;
70342;SDS011;57767;42.068;24.752;2022-09-27T06:00:18;9.02;;;7.78;;
70342;SDS011;57767;42.068;24.752;2022-09-27T06:01:20;12.27;;;8.38;;
70342;SDS011;57767;42.068;24.752;2022-09-27T06:02:22;11.95;;;8.30;;
70342;SDS011;57767;42.068;24.752;2022-09-27T06:03:23;10.05;;;8.07;;
70342;SDS011;57767;42.068;24.752;2022-09-27T06:04:25;15.10;;;7.60;;
70342;SDS011;57767;42.068;24.752;2022-09-27T06:05:28;13.02;;;7.93;;
70342;SDS011;57767;42.068;24.752;2022-09-27T06:06:31;10.23;;;7.70;;
70342;SDS011;57767;42.068;24.752;2022-09-27T06:07:37;8.00;;;6.97;;
70342;SDS011;57767;42.068;24.752;2022-09-27T06:08:39;9.52;;;7.57;;
70342;SDS011;57767;42.068;24.752;2022-09-27T06:09:41;11.05;;;8.13;;
70342;SDS011;57767;42.068;24.752;2022-09-27T06:10:44;12.48;;;7.65;;
70342;SDS011;57767;42.068;24.752;2022-09-27T06:11:47;9.27;;;7.88;;
70342;SDS011;57767;42.068;24.752;2022-09-27T06:12:51;10.60;;;7.47;;
70342;SDS011;57767;42.068;24.752;2022-09-27T06:13:53;10.68;;;7.35;;
70342;SDS011;57767;42.068;24.752;2022-09-27T06:14:55;12.32;;;6.95;;
70342;SDS011;57767;42.068;24.752;2022-09-27T06:15:56;8.25;;;6.70;;
70342;SDS011;57767;42.068;24.752;2022-09-27T06:16:59;8.57;;;6.32;;
70342;SDS011;57767;42.068;24.752;2022-09-27T06:18:05;9.98;;;6.95;;
70342;SDS011;57767;42.068;24.752;2022-09-27T06:19:10;7.40;;;6.70;;
70342;SDS011;57767;42.068;24.752;2022-09-27T06:20:12;8.93;;;7.47;;
70342;SDS011;57767;42.068;24.752;2022-09-27T06:21:13;11.63;;;8.02;;
70342;SDS011;57767;42.068;24.752;2022-09-27T06:22:15;12.35;;;8.52;;
70342;SDS011;57767;42.068;24.752;2022-09-27T06:23:18;17.95;;;10.70;;
70342;SDS011;57767;42.068;24.752;2022-09-27T06:24:22;18.98;;;11.48;;
70342;SDS011;57767;42.068;24.752;2022-09-27T06:25:24;14.98;;;10.02;;
70342;SDS011;57767;42.068;24.752;2022-09-27T06:26:27;12.18;;;9.38;;
70342;SDS011;57767;42.068;24.752;2022-09-27T06:27:29;15.10;;;11.32;;
70342;SDS011;57767;42.068;24.752;2022-09-27T06:28:32;29.63;;;17.17;;
70342;SDS011;57767;42.068;24.752;2022-09-27T06:29:35;19.27;;;13.15;;
70342;SDS011;57767;42.068;24.752;2022-09-27T06:30:38;11.65;;;7.50;;
70342;SDS011;57767;42.068;24.752;2022-09-27T06:31:41;9.50;;;7.47;;
70342;SDS011;57767;42.068;24.752;2022-09-27T06:32:43;10.27;;;7.00;;
70342;SDS011;57767;42.068;24.752;2022-09-27T06:33:45;8.20;;;6.53;;
70342;SDS011;57767;42.068;24.752;2022-09-27T06:34:46;9.60;;;7.00;;
70342;SDS011;57767;42.068;24.752;2022-09-27T06:35:48;8.40;;;7.30;;
70342;SDS011;57767;42.068;24.752;2022-09-27T06:36:50;10.32;;;9.20;;
70342;SDS011;57767;42.068;24.752;2022-09-27T06:37:52;11.23;;;8.43;;
70342;SDS011;57767;42.068;24.752;2022-09-27T06:38:54;11.98;;;8.00;;
70342;SDS011;57767;42.068;24.752;2022-09-27T06:39:55;7.85;;;6.40;;
70342;SDS011;57767;42.068;24.752;2022-09-27T06:41:00;11.88;;;6.53;;
70342;SDS011;57767;42.068;24.752;2022-09-27T06:42:03;7.78;;;6.22;;
70342;SDS011;57767;42.068;24.752;2022-09-27T06:43:08;9.30;;;6.05;;
70342;SDS011;57767;42.068;24.752;2022-09-27T06:44:10;7.20;;;6.18;;
70342;SDS011;57767;42.068;24.752;2022-09-27T06:45:13;9.43;;;5.72;;
70342;SDS011;57767;42.068;24.752;2022-09-27T06:46:15;7.85;;;5.90;;
70342;SDS011;57767;42.068;24.752;2022-09-27T06:47:17;10.85;;;6.25;;
70342;SDS011;57767;42.068;24.752;2022-09-27T06:48:19;10.15;;;6.00;;
70342;SDS011;57767;42.068;24.752;2022-09-27T06:49:21;6.60;;;5.88;;
70342;SDS011;57767;42.068;24.752;2022-09-27T06:50:23;9.05;;;6.22;;
70342;SDS011;57767;42.068;24.752;2022-09-27T06:51:24;7.65;;;6.07;;
70342;SDS011;57767;42.068;24.752;2022-09-27T06:52:26;9.07;;;6.45;;
70342;SDS011;57767;42.068;24.752;2022-09-27T06:53:28;9.20;;;6.55;;
70342;SDS011;57767;42.068;24.752;2022-09-27T06:54:30;10.25;;;6.57;;
70342;SDS011;57767;42.068;24.752;2022-09-27T06:55:32;10.27;;;6.90;;
70342;SDS011;57767;42.068;24.752;2022-09-27T06:56:33;8.07;;;6.97;;